createdAt,value
2022-09-12T00:00:08.710Z,1011.50
2022-09-12T00:01:08.751Z,1011.49
2022-09-12T00:02:08.750Z,1011.47
2022-09-12T00:03:08.697Z,1011.45
2022-09-12T00:04:08.666Z,1011.43
2022-09-12T00:05:08.655Z,1011.47
2022-09-12T00:06:08.639Z,1011.41
2022-09-12T00:07:08.646Z,1011.42
2022-09-12T00:08:08.639Z,1011.44
2022-09-12T00:09:08.614Z,1011.42
2022-09-12T00:10:08.601Z,1011.42
2022-09-12T00:11:08.624Z,1011.41
2022-09-12T00:12:08.608Z,1011.44
2022-09-12T00:13:08.596Z,1011.45
2022-09-12T00:14:08.555Z,1011.43
2022-09-12T00:15:08.540Z,1011.44
2022-09-12T00:16:08.566Z,1011.43
2022-09-12T00:17:08.544Z,1011.42
2022-09-12T00:18:08.507Z,1011.39
2022-09-12T00:19:08.515Z,1011.36
2022-09-12T00:20:08.487Z,1011.46
2022-09-12T00:21:08.476Z,1011.40
2022-09-12T00:22:08.465Z,1011.42
2022-09-12T00:23:08.469Z,1011.33
2022-09-12T00:24:08.441Z,1011.30
2022-09-12T00:25:08.442Z,1011.37
2022-09-12T00:26:08.419Z,1011.37
2022-09-12T00:27:08.415Z,1011.39
2022-09-12T00:28:08.407Z,1011.37
2022-09-12T00:29:08.392Z,1011.38
2022-09-12T00:30:08.374Z,1011.39
2022-09-12T00:31:08.369Z,1011.27
2022-09-12T00:32:08.354Z,1011.37
2022-09-12T00:33:08.346Z,1011.39
2022-09-12T00:34:08.335Z,1011.38
2022-09-12T00:35:08.332Z,1011.36
2022-09-12T00:36:08.307Z,1011.33
2022-09-12T00:37:08.291Z,1011.38
2022-09-12T00:38:08.314Z,1011.30
2022-09-12T00:39:08.278Z,1011.33
2022-09-12T00:40:08.305Z,1011.30
2022-09-12T00:41:08.246Z,1011.36
2022-09-12T00:42:08.239Z,1011.38
2022-09-12T00:43:08.237Z,1011.37
2022-09-12T00:44:08.218Z,1011.36
2022-09-12T00:45:08.220Z,1011.30
2022-09-12T00:46:08.218Z,1011.30
2022-09-12T00:47:08.177Z,1011.23
2022-09-12T00:48:08.208Z,1011.19
2022-09-12T00:49:08.158Z,1011.19
2022-09-12T00:50:08.149Z,1011.20
2022-09-12T00:51:08.152Z,1011.23
2022-09-12T00:52:08.142Z,1011.14
2022-09-12T00:53:08.117Z,1011.16
2022-09-12T00:54:08.113Z,1011.16
2022-09-12T00:55:08.095Z,1011.22
2022-09-12T00:56:08.086Z,1011.17
2022-09-12T00:57:08.064Z,1011.19
2022-09-12T00:58:08.076Z,1011.17
2022-09-12T00:59:08.058Z,1011.15
2022-09-12T01:00:08.038Z,1011.16
2022-09-12T01:01:08.121Z,1011.12
2022-09-12T01:02:08.119Z,1011.10
2022-09-12T01:03:08.003Z,1011.13
2022-09-12T01:04:07.997Z,1011.08
2022-09-12T01:05:07.997Z,1011.07
2022-09-12T01:06:07.968Z,1011.11
2022-09-12T01:07:07.979Z,1011.09
2022-09-12T01:08:07.956Z,1011.07
2022-09-12T01:09:07.935Z,1011.08
2022-09-12T01:10:07.951Z,1011.03
2022-09-12T01:11:07.912Z,1011.04
2022-09-12T01:12:07.905Z,1011.01
2022-09-12T01:13:07.890Z,1010.99
2022-09-12T01:14:07.897Z,1010.99
2022-09-12T01:15:07.926Z,1010.99
2022-09-12T01:16:07.955Z,1011.00
2022-09-12T01:17:07.847Z,1010.99
2022-09-12T01:18:07.840Z,1010.98
2022-09-12T01:19:07.828Z,1011.00
2022-09-12T01:20:07.811Z,1011.00
2022-09-12T01:21:07.815Z,1010.98
2022-09-12T01:22:07.802Z,1010.91
2022-09-12T01:23:07.798Z,1010.96
2022-09-12T01:24:07.771Z,1010.99
2022-09-12T01:25:07.762Z,1010.98
2022-09-12T01:26:07.748Z,1010.96
2022-09-12T01:27:07.743Z,1010.91
2022-09-12T01:28:07.744Z,1010.99
2022-09-12T01:29:07.713Z,1010.95
2022-09-12T01:30:07.718Z,1010.97
2022-09-12T01:31:07.700Z,1010.99
2022-09-12T01:32:07.748Z,1010.94
2022-09-12T01:33:07.670Z,1010.92
2022-09-12T01:34:07.665Z,1010.99
2022-09-12T01:35:07.677Z,1010.90
2022-09-12T01:36:07.638Z,1010.91
2022-09-12T01:37:07.641Z,1010.99
2022-09-12T01:38:07.618Z,1010.93
2022-09-12T01:39:07.617Z,1010.95
2022-09-12T01:40:07.625Z,1010.95
2022-09-12T01:41:07.592Z,1010.97
2022-09-12T01:42:07.585Z,1010.91
2022-09-12T01:43:07.558Z,1010.90
2022-09-12T01:44:15.633Z,1010.87
2022-09-12T01:45:07.534Z,1010.90
2022-09-12T01:46:07.589Z,1010.90
2022-09-12T01:47:07.543Z,1010.93
2022-09-12T01:48:07.520Z,1010.91
2022-09-12T01:49:07.488Z,1010.89
2022-09-12T01:50:07.479Z,1010.87
2022-09-12T01:51:07.488Z,1010.89
2022-09-12T01:52:07.473Z,1010.84
2022-09-12T01:53:07.443Z,1010.88
2022-09-12T01:54:07.446Z,1010.82
2022-09-12T01:55:09.730Z,1010.81
2022-09-12T01:56:07.420Z,1010.83
2022-09-12T01:57:07.404Z,1010.75
2022-09-12T01:58:07.406Z,1010.71
2022-09-12T01:59:07.393Z,1010.75
2022-09-12T02:00:07.377Z,1010.81
2022-09-12T02:01:07.452Z,1010.80
2022-09-12T02:02:07.390Z,1010.79
2022-09-12T02:03:07.364Z,1010.80
2022-09-12T02:04:07.329Z,1010.76
2022-09-12T02:05:07.312Z,1010.79
2022-09-12T02:06:07.312Z,1010.75
2022-09-12T02:07:07.303Z,1010.69
2022-09-12T02:08:07.287Z,1010.76
2022-09-12T02:09:07.277Z,1010.79
2022-09-12T02:10:07.301Z,1010.74
2022-09-12T02:11:07.278Z,1010.70
2022-09-12T02:12:07.252Z,1010.79
2022-09-12T02:13:07.250Z,1010.74
2022-09-12T02:14:07.216Z,1010.71
2022-09-12T02:15:07.202Z,1010.73
2022-09-12T02:16:07.266Z,1010.72
2022-09-12T02:17:07.203Z,1010.64
2022-09-12T02:18:07.173Z,1010.66
2022-09-12T02:19:07.162Z,1010.68
2022-09-12T02:20:07.158Z,1010.68
2022-09-12T02:21:07.144Z,1010.63
2022-09-12T02:22:07.127Z,1010.66
2022-09-12T02:23:07.131Z,1010.62
2022-09-12T02:24:07.107Z,1010.58
2022-09-12T02:25:07.091Z,1010.58
2022-09-12T02:26:07.094Z,1010.62
2022-09-12T02:27:07.105Z,1010.61
2022-09-12T02:28:07.061Z,1010.67
2022-09-12T02:29:07.049Z,1010.67
2022-09-12T02:30:07.044Z,1010.66
2022-09-12T02:31:07.058Z,1010.68
2022-09-12T02:32:07.050Z,1010.67
2022-09-12T02:33:07.007Z,1010.69
2022-09-12T02:34:07.005Z,1010.66
2022-09-12T02:35:06.984Z,1010.64
2022-09-12T02:36:06.981Z,1010.64
2022-09-12T02:37:07.000Z,1010.65
2022-09-12T02:38:06.950Z,1010.63
2022-09-12T02:39:06.948Z,1010.58
2022-09-12T02:40:06.994Z,1010.63
2022-09-12T02:41:06.916Z,1010.63
2022-09-12T02:42:06.917Z,1010.62
2022-09-12T02:43:06.912Z,1010.61
2022-09-12T02:44:06.900Z,1010.58
2022-09-12T02:45:06.885Z,1010.59
2022-09-12T02:46:06.885Z,1010.59
2022-09-12T02:47:06.869Z,1010.58
2022-09-12T02:48:06.871Z,1010.57
2022-09-12T02:49:08.860Z,1010.56
2022-09-12T02:50:06.820Z,1010.48
2022-09-12T02:51:06.825Z,1010.50
2022-09-12T02:52:06.801Z,1010.48
2022-09-12T02:53:06.781Z,1010.49
2022-09-12T02:54:06.790Z,1010.47
2022-09-12T02:55:06.759Z,1010.55
2022-09-12T02:56:06.756Z,1010.44
2022-09-12T02:57:06.756Z,1010.52
2022-09-12T02:58:06.725Z,1010.48
2022-09-12T02:59:06.734Z,1010.41
2022-09-12T03:00:06.722Z,1010.44
2022-09-12T03:01:06.748Z,1010.46
2022-09-12T03:02:06.700Z,1010.44
2022-09-12T03:03:06.673Z,1010.40
2022-09-12T03:04:06.667Z,1010.40
2022-09-12T03:05:06.657Z,1010.44
2022-09-12T03:06:06.650Z,1010.39
2022-09-12T03:07:06.649Z,1010.38
2022-09-12T03:08:06.614Z,1010.40
2022-09-12T03:09:06.614Z,1010.42
2022-09-12T03:10:06.596Z,1010.35
2022-09-12T03:11:06.582Z,1010.36
2022-09-12T03:12:06.590Z,1010.36
2022-09-12T03:13:06.561Z,1010.38
2022-09-12T03:14:06.568Z,1010.40
2022-09-12T03:15:06.560Z,1010.34
2022-09-12T03:16:06.575Z,1010.43
2022-09-12T03:17:06.516Z,1010.36
2022-09-12T03:18:06.503Z,1010.37
2022-09-12T03:19:06.506Z,1010.37
2022-09-12T03:20:06.492Z,1010.30
2022-09-12T03:21:06.475Z,1010.34
2022-09-12T03:22:06.472Z,1010.31
2022-09-12T03:23:06.455Z,1010.34
2022-09-12T03:24:06.436Z,1010.40
2022-09-12T03:25:06.439Z,1010.34
2022-09-12T03:26:06.420Z,1010.39
2022-09-12T03:27:06.429Z,1010.41
2022-09-12T03:28:06.393Z,1010.40
2022-09-12T03:29:06.383Z,1010.45
2022-09-12T03:30:06.394Z,1010.43
2022-09-12T03:31:06.437Z,1010.43
2022-09-12T03:32:06.359Z,1010.45
2022-09-12T03:33:06.338Z,1010.39
2022-09-12T03:34:06.327Z,1010.37
2022-09-12T03:35:06.328Z,1010.30
2022-09-12T03:36:06.326Z,1010.30
2022-09-12T03:37:06.302Z,1010.31
2022-09-12T03:38:06.283Z,1010.27
2022-09-12T03:39:06.275Z,1010.30
2022-09-12T03:40:06.315Z,1010.33
2022-09-12T03:41:06.261Z,1010.30
2022-09-12T03:42:06.239Z,1010.39
2022-09-12T03:43:06.245Z,1010.37
2022-09-12T03:44:06.215Z,1010.37
2022-09-12T03:45:06.221Z,1010.36
2022-09-12T03:46:06.242Z,1010.39
2022-09-12T03:47:11.006Z,1010.42
2022-09-12T03:48:07.201Z,1010.36
2022-09-12T03:49:06.171Z,1010.35
2022-09-12T03:50:06.150Z,1010.30
2022-09-12T03:51:06.270Z,1010.28
2022-09-12T03:52:06.132Z,1010.27
2022-09-12T03:53:06.123Z,1010.32
2022-09-12T03:54:06.107Z,1010.29
2022-09-12T03:55:06.106Z,1010.33
2022-09-12T03:56:06.091Z,1010.32
2022-09-12T03:57:06.114Z,1010.35
2022-09-12T03:58:06.065Z,1010.27
2022-09-12T03:59:06.064Z,1010.33
2022-09-12T04:00:06.041Z,1010.29
2022-09-12T04:01:06.076Z,1010.25
2022-09-12T04:02:06.058Z,1010.24
2022-09-12T04:03:06.036Z,1010.22
2022-09-12T04:04:05.993Z,1010.32
2022-09-12T04:05:05.990Z,1010.23
2022-09-12T04:06:05.985Z,1010.24
2022-09-12T04:07:05.958Z,1010.30
2022-09-12T04:08:05.957Z,1010.29
2022-09-12T04:09:05.947Z,1010.34
2022-09-12T04:10:05.925Z,1010.31
2022-09-12T04:11:05.946Z,1010.24
2022-09-12T04:12:05.908Z,1010.22
2022-09-12T04:13:05.896Z,1010.23
2022-09-12T04:14:05.893Z,1010.20
2022-09-12T04:15:05.900Z,1010.28
2022-09-12T04:16:05.863Z,1010.26
2022-09-12T04:17:05.852Z,1010.23
2022-09-12T04:18:06.285Z,1010.25
2022-09-12T04:19:05.846Z,1010.25
2022-09-12T04:20:05.815Z,1010.20
2022-09-12T04:21:05.810Z,1010.16
2022-09-12T04:22:05.791Z,1010.17
2022-09-12T04:23:05.822Z,1010.16
2022-09-12T04:24:05.768Z,1010.14
2022-09-12T04:25:05.770Z,1010.15
2022-09-12T04:26:05.744Z,1010.15
2022-09-12T04:27:07.832Z,1010.17
2022-09-12T04:28:05.749Z,1010.15
2022-09-12T04:29:05.741Z,1010.17
2022-09-12T04:30:05.701Z,1010.18
2022-09-12T04:31:05.735Z,1010.19
2022-09-12T04:32:05.679Z,1010.19
2022-09-12T04:33:08.106Z,1010.15
2022-09-12T04:34:05.700Z,1010.23
2022-09-12T04:35:05.668Z,1010.17
2022-09-12T04:36:05.643Z,1010.13
2022-09-12T04:37:05.632Z,1010.18
2022-09-12T04:38:05.614Z,1010.19
2022-09-12T04:39:05.618Z,1010.16
2022-09-12T04:40:05.671Z,1010.20
2022-09-12T04:41:05.579Z,1010.16
2022-09-12T04:42:05.568Z,1010.17
2022-09-12T04:43:05.559Z,1010.13
2022-09-12T04:44:05.587Z,1010.16
2022-09-12T04:45:05.549Z,1010.14
2022-09-12T04:46:05.607Z,1010.16
2022-09-12T04:47:05.520Z,1010.19
2022-09-12T04:48:05.501Z,1010.11
2022-09-12T04:49:05.494Z,1010.08
2022-09-12T04:50:05.495Z,1010.15
2022-09-12T04:51:05.492Z,1010.20
2022-09-12T04:52:05.465Z,1010.12
2022-09-12T04:53:05.451Z,1010.08
2022-09-12T04:54:05.448Z,1010.04
2022-09-12T04:55:05.429Z,1010.12
2022-09-12T04:56:05.450Z,1010.08
2022-09-12T04:57:05.408Z,1010.05
2022-09-12T04:58:05.398Z,1010.06
2022-09-12T04:59:05.385Z,1010.11
2022-09-12T05:00:07.201Z,1010.08
2022-09-12T05:01:05.413Z,1010.12
2022-09-12T05:02:05.411Z,1010.09
2022-09-12T05:03:05.336Z,1010.04
2022-09-12T05:04:05.357Z,1010.07
2022-09-12T05:05:05.327Z,1010.13
2022-09-12T05:06:05.303Z,1010.09
2022-09-12T05:07:05.330Z,1010.07
2022-09-12T05:08:05.276Z,1010.05
2022-09-12T05:09:05.276Z,1010.02
2022-09-12T05:10:05.259Z,1009.98
2022-09-12T05:11:05.274Z,1010.05
2022-09-12T05:12:05.865Z,1010.00
2022-09-12T05:13:05.225Z,1010.03
2022-09-12T05:14:05.211Z,1010.05
2022-09-12T05:15:05.205Z,1010.04
2022-09-12T05:16:05.191Z,1010.04
2022-09-12T05:17:05.254Z,1010.02
2022-09-12T05:18:05.165Z,1010.05
2022-09-12T05:19:05.192Z,1010.01
2022-09-12T05:20:05.143Z,1010.08
2022-09-12T05:21:05.153Z,1010.03
2022-09-12T05:22:05.141Z,1010.01
2022-09-12T05:23:05.140Z,1010.06
2022-09-12T05:24:05.099Z,1009.98
2022-09-12T05:25:05.095Z,1009.97
2022-09-12T05:26:05.081Z,1009.97
2022-09-12T05:27:05.096Z,1010.01
2022-09-12T05:28:05.055Z,1009.92
2022-09-12T05:29:05.049Z,1009.96
2022-09-12T05:30:05.032Z,1009.98
2022-09-12T05:31:05.123Z,1009.97
2022-09-12T05:32:05.014Z,1009.92
2022-09-12T05:33:05.122Z,1010.01
2022-09-12T05:34:04.999Z,1009.95
2022-09-12T05:35:05.012Z,1009.94
2022-09-12T05:36:04.968Z,1009.97
2022-09-12T05:37:04.958Z,1009.94
2022-09-12T05:38:04.946Z,1009.94
2022-09-12T05:39:04.964Z,1009.91
2022-09-12T05:40:05.110Z,1009.92
2022-09-12T05:41:04.913Z,1009.89
2022-09-12T05:42:04.901Z,1009.90
2022-09-12T05:43:04.905Z,1009.84
2022-09-12T05:44:04.902Z,1009.88
2022-09-12T05:45:04.875Z,1009.91
2022-09-12T05:46:05.009Z,1009.88
2022-09-12T05:47:04.849Z,1009.90
2022-09-12T05:48:04.845Z,1009.90
2022-09-12T05:49:04.831Z,1009.98
2022-09-12T05:50:04.814Z,1009.88
2022-09-12T05:51:04.809Z,1009.90
2022-09-12T05:52:04.792Z,1009.95
2022-09-12T05:53:04.792Z,1009.96
2022-09-12T05:54:04.775Z,1009.97
2022-09-12T05:55:04.785Z,1010.00
2022-09-12T05:56:04.759Z,1009.92
2022-09-12T05:57:04.749Z,1009.92
2022-09-12T05:58:04.741Z,1010.00
2022-09-12T05:59:04.719Z,1010.06
2022-09-12T06:00:04.755Z,1009.86
2022-09-12T06:01:04.738Z,1009.99
2022-09-12T06:02:04.740Z,1009.96
2022-09-12T06:03:04.681Z,1010.02
2022-09-12T06:04:04.672Z,1009.95
2022-09-12T06:05:04.647Z,1010.00
2022-09-12T06:06:04.646Z,1010.00
2022-09-12T06:07:04.628Z,1010.03
2022-09-12T06:08:04.616Z,1010.06
2022-09-12T06:09:04.616Z,1010.02
2022-09-12T06:10:04.595Z,1010.02
2022-09-12T06:11:04.607Z,1010.01
2022-09-12T06:12:04.575Z,1010.00
2022-09-12T06:13:04.558Z,1009.97
2022-09-12T06:14:04.586Z,1009.99
2022-09-12T06:15:04.552Z,1010.04
2022-09-12T06:16:04.523Z,1010.03
2022-09-12T06:17:04.574Z,1010.08
2022-09-12T06:18:04.507Z,1010.11
2022-09-12T06:19:04.505Z,1010.08
2022-09-12T06:20:04.491Z,1010.14
2022-09-12T06:21:04.471Z,1010.05
2022-09-12T06:22:04.451Z,1010.09
2022-09-12T06:23:04.462Z,1010.04
2022-09-12T06:24:04.446Z,1009.99
2022-09-12T06:25:04.446Z,1010.00
2022-09-12T06:26:04.414Z,1009.96
2022-09-12T06:27:04.425Z,1009.97
2022-09-12T06:28:04.390Z,1010.06
2022-09-12T06:29:04.382Z,1010.07
2022-09-12T06:30:04.382Z,1010.05
2022-09-12T06:31:04.445Z,1010.11
2022-09-12T06:32:04.358Z,1010.06
2022-09-12T06:33:04.339Z,1010.09
2022-09-12T06:34:04.323Z,1010.10
2022-09-12T06:35:04.337Z,1010.19
2022-09-12T06:36:06.893Z,1010.14
2022-09-12T06:37:04.294Z,1010.15
2022-09-12T06:38:04.274Z,1010.18
2022-09-12T06:39:04.272Z,1010.15
2022-09-12T06:40:04.331Z,1010.17
2022-09-12T06:41:04.256Z,1010.16
2022-09-12T06:42:04.273Z,1010.17
2022-09-12T06:43:04.242Z,1010.11
2022-09-12T06:44:04.212Z,1010.17
2022-09-12T06:45:04.203Z,1010.19
2022-09-12T06:46:04.273Z,1010.15
2022-09-12T06:47:04.192Z,1010.14
2022-09-12T06:48:04.164Z,1010.15
2022-09-12T06:49:04.160Z,1010.14
2022-09-12T06:50:04.141Z,1010.07
2022-09-12T06:51:04.176Z,1010.09
2022-09-12T06:52:04.135Z,1010.06
2022-09-12T06:53:04.108Z,1010.05
2022-09-12T06:54:04.097Z,1010.08
2022-09-12T06:55:04.088Z,1010.10
2022-09-12T06:56:04.075Z,1010.10
2022-09-12T06:57:04.087Z,1010.08
2022-09-12T06:58:04.052Z,1010.09
2022-09-12T06:59:04.065Z,1010.12
2022-09-12T07:00:04.031Z,1010.12
2022-09-12T07:01:04.096Z,1010.02
2022-09-12T07:02:04.074Z,1010.05
2022-09-12T07:03:04.001Z,1010.03
2022-09-12T07:04:04.013Z,1010.05
2022-09-12T07:05:03.980Z,1010.04
2022-09-12T07:06:03.977Z,1010.11
2022-09-12T07:07:03.967Z,1010.06
2022-09-12T07:08:03.942Z,1010.09
2022-09-12T07:09:03.941Z,1010.06
2022-09-12T07:10:03.923Z,1010.04
2022-09-12T07:11:03.912Z,1010.01
2022-09-12T07:12:03.944Z,1010.07
2022-09-12T07:13:03.891Z,1010.02
2022-09-12T07:14:03.879Z,1010.06
2022-09-12T07:15:03.891Z,1010.00
2022-09-12T07:16:03.849Z,1010.04
2022-09-12T07:17:03.866Z,1010.04
2022-09-12T07:18:03.840Z,1009.95
2022-09-12T07:19:03.840Z,1010.02
2022-09-12T07:20:03.802Z,1010.01
2022-09-12T07:21:03.795Z,1010.00
2022-09-12T07:22:03.828Z,1009.98
2022-09-12T07:23:03.781Z,1010.03
2022-09-12T07:24:03.768Z,1009.96
2022-09-12T07:25:03.748Z,1009.96
2022-09-12T07:26:03.743Z,1009.93
2022-09-12T07:27:03.748Z,1009.95
2022-09-12T07:28:03.738Z,1009.94
2022-09-12T07:29:32.185Z,1009.97
2022-09-12T07:30:04.698Z,1010.00
2022-09-12T07:31:03.721Z,1010.02
2022-09-12T07:32:03.679Z,1010.08
2022-09-12T07:33:03.678Z,1010.01
2022-09-12T07:34:03.652Z,1010.02
2022-09-12T07:35:03.637Z,1009.98
2022-09-12T07:36:03.648Z,1010.04
2022-09-12T07:37:03.619Z,1010.02
2022-09-12T07:38:03.618Z,1009.97
2022-09-12T07:39:03.608Z,1010.02
2022-09-12T07:40:03.639Z,1010.06
2022-09-12T07:41:03.571Z,1010.03
2022-09-12T07:42:03.562Z,1010.02
2022-09-12T07:43:03.551Z,1010.06
2022-09-12T07:44:10.631Z,1010.03
2022-09-12T07:45:03.525Z,1009.98
2022-09-12T07:46:03.540Z,1010.01
2022-09-12T07:47:04.222Z,1010.00
2022-09-12T07:48:03.496Z,1010.03
2022-09-12T07:49:03.487Z,1009.97
2022-09-12T07:50:03.484Z,1010.01
2022-09-12T07:51:03.484Z,1010.01
2022-09-12T07:52:03.455Z,1010.01
2022-09-12T07:53:03.440Z,1010.04
2022-09-12T07:54:03.448Z,1010.04
2022-09-12T07:55:03.459Z,1010.03
2022-09-12T07:56:03.417Z,1010.00
2022-09-12T07:57:03.396Z,1010.05
2022-09-12T07:58:03.389Z,1010.03
2022-09-12T07:59:03.412Z,1010.05
2022-09-12T08:00:03.362Z,1010.04
2022-09-12T08:01:03.454Z,1009.97
2022-09-12T08:02:03.353Z,1009.99
2022-09-12T08:03:03.346Z,1010.03
2022-09-12T08:04:03.328Z,1010.02
2022-09-12T08:05:03.306Z,1009.98
2022-09-12T08:06:03.311Z,1009.97
2022-09-12T08:07:03.284Z,1010.06
2022-09-12T08:08:03.276Z,1010.04
2022-09-12T08:09:03.272Z,1009.97
2022-09-12T08:10:03.259Z,1009.98
2022-09-12T08:11:03.266Z,1009.98
2022-09-12T08:12:03.230Z,1009.98
2022-09-12T08:13:03.224Z,1009.98
2022-09-12T08:14:03.236Z,1009.94
2022-09-12T08:15:03.198Z,1009.97
2022-09-12T08:16:03.241Z,1009.96
2022-09-12T08:17:03.180Z,1009.91
2022-09-12T08:18:03.173Z,1009.93
2022-09-12T08:19:03.176Z,1009.97
2022-09-12T08:20:03.160Z,1010.03
2022-09-12T08:21:03.128Z,1009.99
2022-09-12T08:22:03.120Z,1010.06
2022-09-12T08:23:03.102Z,1010.00
2022-09-12T08:24:03.096Z,1010.02
2022-09-12T08:25:03.094Z,1010.00
2022-09-12T08:26:05.965Z,1010.05
2022-09-12T08:27:03.067Z,1009.99
2022-09-12T08:28:03.058Z,1010.11
2022-09-12T08:29:03.048Z,1010.00
2022-09-12T08:30:03.029Z,1010.05
2022-09-12T08:31:03.094Z,1010.06
2022-09-12T08:32:03.014Z,1010.04
2022-09-12T08:33:02.990Z,1010.10
2022-09-12T08:34:02.991Z,1010.09
2022-09-12T08:35:02.986Z,1010.03
2022-09-12T08:36:02.963Z,1010.04
2022-09-12T08:37:02.954Z,1010.06
2022-09-12T08:38:02.950Z,1009.99
2022-09-12T08:39:02.923Z,1009.98
2022-09-12T08:40:02.969Z,1009.97
2022-09-12T08:41:02.913Z,1009.93
2022-09-12T08:42:03.068Z,1009.91
2022-09-12T08:43:02.881Z,1009.99
2022-09-12T08:44:02.874Z,1009.95
2022-09-12T08:45:02.863Z,1009.97
2022-09-12T08:46:02.859Z,1009.99
2022-09-12T08:47:02.856Z,1010.02
2022-09-12T08:48:02.826Z,1009.97
2022-09-12T08:49:02.812Z,1010.03
2022-09-12T08:50:02.802Z,1009.99
2022-09-12T08:51:02.816Z,1010.02
2022-09-12T08:52:02.923Z,1010.07
2022-09-12T08:53:02.764Z,1010.04
2022-09-12T08:54:02.755Z,1009.94
2022-09-12T08:55:02.740Z,1010.01
2022-09-12T08:56:02.734Z,1010.02
2022-09-12T08:57:02.719Z,1009.98
2022-09-12T08:58:02.732Z,1009.93
2022-09-12T08:59:02.700Z,1009.96
2022-09-12T09:00:02.692Z,1009.97
2022-09-12T09:01:02.675Z,1009.93
2022-09-12T09:02:02.675Z,1009.99
2022-09-12T09:03:02.700Z,1009.95
2022-09-12T09:04:02.648Z,1009.97
2022-09-12T09:05:02.633Z,1009.94
2022-09-12T09:06:02.628Z,1009.91
2022-09-12T09:07:02.639Z,1009.97
2022-09-12T09:08:02.599Z,1010.02
2022-09-12T09:09:02.623Z,1009.98
2022-09-12T09:10:02.583Z,1009.96
2022-09-12T09:11:02.567Z,1009.95
2022-09-12T09:12:02.559Z,1009.90
2022-09-12T09:13:02.549Z,1009.83
2022-09-12T09:14:05.152Z,1009.89
2022-09-12T09:15:02.531Z,1009.90
2022-09-12T09:16:02.572Z,1009.95
2022-09-12T09:17:02.501Z,1009.89
2022-09-12T09:18:02.503Z,1009.97
2022-09-12T09:19:02.484Z,1009.95
2022-09-12T09:20:02.480Z,1009.90
2022-09-12T09:21:02.458Z,1009.88
2022-09-12T09:22:02.442Z,1009.87
2022-09-12T09:23:02.486Z,1009.85
2022-09-12T09:24:02.425Z,1009.82
2022-09-12T09:25:02.412Z,1009.87
2022-09-12T09:26:02.407Z,1009.83
2022-09-12T09:27:02.384Z,1009.84
2022-09-12T09:28:02.384Z,1009.84
2022-09-12T09:29:02.400Z,1009.83
2022-09-12T09:30:02.361Z,1009.83
2022-09-12T09:31:02.439Z,1009.78
2022-09-12T09:32:02.350Z,1009.78
2022-09-12T09:33:02.328Z,1009.80
2022-09-12T09:34:02.316Z,1009.75
2022-09-12T09:35:02.310Z,1009.80
2022-09-12T09:36:02.288Z,1009.72
2022-09-12T09:37:02.280Z,1009.70
2022-09-12T09:38:02.294Z,1009.68
2022-09-12T09:39:02.297Z,1009.66
2022-09-12T09:40:02.294Z,1009.64
2022-09-12T09:41:02.237Z,1009.65
2022-09-12T09:42:02.228Z,1009.69
2022-09-12T09:43:02.212Z,1009.61
2022-09-12T09:44:02.281Z,1009.63
2022-09-12T09:45:02.211Z,1009.61
2022-09-12T09:46:02.251Z,1009.57
2022-09-12T09:47:02.172Z,1009.63
2022-09-12T09:48:02.158Z,1009.62
2022-09-12T09:49:02.164Z,1009.61
2022-09-12T09:50:02.165Z,1009.56
2022-09-12T09:51:02.129Z,1009.70
2022-09-12T09:52:02.113Z,1009.66
2022-09-12T09:53:02.102Z,1009.65
2022-09-12T09:54:02.091Z,1009.66
2022-09-12T09:55:02.113Z,1009.61
2022-09-12T09:56:02.070Z,1009.61
2022-09-12T09:57:02.064Z,1009.58
2022-09-12T09:58:02.046Z,1009.61
2022-09-12T09:59:02.034Z,1009.61
2022-09-12T10:00:02.045Z,1009.58
2022-09-12T10:01:02.092Z,1009.63
2022-09-12T10:02:02.097Z,1009.60
2022-09-12T10:03:01.993Z,1009.62
2022-09-12T10:04:01.984Z,1009.59
2022-09-12T10:05:01.977Z,1009.65
2022-09-12T10:06:01.966Z,1009.57
2022-09-12T10:07:01.946Z,1009.55
2022-09-12T10:08:01.953Z,1009.53
2022-09-12T10:09:01.933Z,1009.55
2022-09-12T10:10:01.912Z,1009.56
2022-09-12T10:11:01.953Z,1009.52
2022-09-12T10:12:01.901Z,1009.52
2022-09-12T10:13:01.877Z,1009.49
2022-09-12T10:14:01.879Z,1009.53
2022-09-12T10:15:01.864Z,1009.44
2022-09-12T10:16:01.983Z,1009.52
2022-09-12T10:17:01.837Z,1009.46
2022-09-12T10:18:01.827Z,1009.51
2022-09-12T10:19:01.821Z,1009.47
2022-09-12T10:20:20.464Z,1009.52
2022-09-12T10:21:02.817Z,1009.51
2022-09-12T10:22:01.779Z,1009.41
2022-09-12T10:23:01.770Z,1009.42
2022-09-12T10:24:01.764Z,1009.43
2022-09-12T10:25:01.768Z,1009.41
2022-09-12T10:26:01.746Z,1009.40
2022-09-12T10:27:01.751Z,1009.44
2022-09-12T10:28:01.714Z,1009.40
2022-09-12T10:29:01.703Z,1009.35
2022-09-12T10:30:01.697Z,1009.34
2022-09-12T10:31:01.735Z,1009.35
2022-09-12T10:32:01.674Z,1009.29
2022-09-12T10:33:01.661Z,1009.27
2022-09-12T10:34:01.652Z,1009.25
2022-09-12T10:35:01.644Z,1009.21
2022-09-12T10:36:01.633Z,1009.13
2022-09-12T10:37:01.626Z,1009.15
2022-09-12T10:38:01.603Z,1009.16
2022-09-12T10:39:01.638Z,1009.17
2022-09-12T10:40:01.658Z,1009.16
2022-09-12T10:41:01.576Z,1009.16
2022-09-12T10:42:01.586Z,1009.13
2022-09-12T10:43:01.696Z,1009.18
2022-09-12T10:44:01.574Z,1009.18
2022-09-12T10:45:01.520Z,1009.14
2022-09-12T10:46:01.589Z,1009.13
2022-09-12T10:47:01.514Z,1009.15
2022-09-12T10:48:06.787Z,1009.05
2022-09-12T10:49:01.505Z,1009.06
2022-09-12T10:50:01.487Z,1009.02
2022-09-12T10:51:01.455Z,1009.04
2022-09-12T10:52:01.465Z,1009.06
2022-09-12T10:53:01.436Z,1008.98
2022-09-12T10:54:01.423Z,1009.04
2022-09-12T10:55:01.435Z,1009.03
2022-09-12T10:56:01.402Z,1009.01
2022-09-12T10:57:01.397Z,1008.98
2022-09-12T10:58:01.395Z,1008.98
2022-09-12T10:59:01.395Z,1008.94
2022-09-12T11:00:01.363Z,1008.95
2022-09-12T11:01:01.400Z,1008.96
2022-09-12T11:02:01.476Z,1008.93
2022-09-12T11:03:01.324Z,1008.91
2022-09-12T11:04:01.316Z,1008.86
2022-09-12T11:05:01.310Z,1008.94
2022-09-12T11:06:01.292Z,1008.95
2022-09-12T11:07:01.304Z,1008.99
2022-09-12T11:08:01.284Z,1008.97
2022-09-12T11:09:01.256Z,1008.95
2022-09-12T11:10:01.250Z,1008.90
2022-09-12T11:11:01.241Z,1008.92
2022-09-12T11:12:01.238Z,1009.01
2022-09-12T11:13:01.230Z,1008.86
2022-09-12T11:14:01.206Z,1008.91
2022-09-12T11:15:01.212Z,1008.84
2022-09-12T11:16:01.340Z,1008.85
2022-09-12T11:17:01.170Z,1008.86
2022-09-12T11:18:01.172Z,1008.90
2022-09-12T11:19:01.162Z,1008.83
2022-09-12T11:20:01.135Z,1008.83
2022-09-12T11:21:01.125Z,1008.83
2022-09-12T11:22:01.117Z,1008.74
2022-09-12T11:23:01.115Z,1008.77
2022-09-12T11:24:01.095Z,1008.87
2022-09-12T11:25:01.089Z,1008.83
2022-09-12T11:26:01.072Z,1008.78
2022-09-12T11:27:01.057Z,1008.77
2022-09-12T11:28:01.063Z,1008.74
2022-09-12T11:29:01.047Z,1008.83
2022-09-12T11:30:01.031Z,1008.74
2022-09-12T11:31:01.195Z,1008.73
2022-09-12T11:32:01.013Z,1008.69
2022-09-12T11:33:01.003Z,1008.75
2022-09-12T11:34:00.986Z,1008.75
2022-09-12T11:35:00.969Z,1008.68
2022-09-12T11:36:00.956Z,1008.69
2022-09-12T11:37:00.968Z,1008.72
2022-09-12T11:38:00.952Z,1008.82
2022-09-12T11:39:00.941Z,1008.73
2022-09-12T11:40:00.974Z,1008.72
2022-09-12T11:41:00.910Z,1008.81
2022-09-12T11:42:00.907Z,1008.75
2022-09-12T11:43:00.900Z,1008.73
2022-09-12T11:44:00.889Z,1008.71
2022-09-12T11:45:00.864Z,1008.62
2022-09-12T11:46:00.897Z,1008.67
2022-09-12T11:47:00.864Z,1008.69
2022-09-12T11:48:00.836Z,1008.64
2022-09-12T11:49:00.843Z,1008.63
2022-09-12T11:50:00.805Z,1008.70
2022-09-12T11:51:00.797Z,1008.71
2022-09-12T11:52:00.783Z,1008.67
2022-09-12T11:53:00.775Z,1008.70
2022-09-12T11:54:00.773Z,1008.73
2022-09-12T11:55:00.756Z,1008.70
2022-09-12T11:56:00.757Z,1008.71
2022-09-12T11:57:00.732Z,1008.71
2022-09-12T11:58:00.719Z,1008.69
2022-09-12T11:59:00.722Z,1008.75
2022-09-12T12:00:00.697Z,1008.73
2022-09-12T12:01:00.688Z,1008.72
2022-09-12T12:02:00.715Z,1008.74
2022-09-12T12:03:00.700Z,1008.68
2022-09-12T12:04:00.766Z,1008.70
2022-09-12T12:05:00.645Z,1008.69